createdAt,value
2023-01-08T00:03:27.081Z,99954.91
2023-01-08T00:08:29.497Z,99951.84
2023-01-08T00:13:30.960Z,99938.19
2023-01-08T00:18:32.808Z,99949.03
2023-01-08T00:23:35.548Z,99948.28
2023-01-08T00:28:38.037Z,99941.56
2023-01-08T00:33:40.655Z,99934.94
2023-01-08T00:38:43.170Z,99917.91
2023-01-08T00:43:44.635Z,99904.09
2023-01-08T00:48:46.098Z,99902.03
2023-01-08T00:53:47.512Z,99903.56
2023-01-08T00:58:49.275Z,99912.56
2023-01-08T01:03:50.719Z,99920.13
2023-01-08T01:08:52.458Z,99923.31
2023-01-08T01:13:57.485Z,99926.81
2023-01-08T01:18:58.969Z,99920.81
2023-01-08T01:24:03.141Z,99904.94
2023-01-08T01:29:04.929Z,99906.41
2023-01-08T01:34:06.409Z,99902.31
2023-01-08T01:39:08.058Z,99897.25
2023-01-08T01:44:46.760Z,99892.16
2023-01-08T01:50:19.670Z,99898.38
2023-01-08T01:55:21.137Z,99895.59
2023-01-08T02:00:23.265Z,99885.56
2023-01-08T02:05:32.806Z,99895.94
2023-01-08T02:10:48.259Z,99879.25
2023-01-08T02:16:06.144Z,99879.88
2023-01-08T02:21:11.213Z,99870.97
2023-01-08T02:26:29.575Z,99877.72
2023-01-08T02:31:33.008Z,99861.53
2023-01-08T02:36:55.181Z,99847.06
2023-01-08T02:42:06.923Z,99863.06
2023-01-08T02:47:15.847Z,99840.00
2023-01-08T02:52:18.132Z,99847.38
2023-01-08T02:57:20.699Z,99874.53
2023-01-08T03:02:22.840Z,99867.34
2023-01-08T03:07:24.337Z,99860.19
2023-01-08T03:12:43.751Z,99866.78
2023-01-08T03:17:48.356Z,99865.06
2023-01-08T03:22:54.520Z,99847.34
2023-01-08T03:28:02.693Z,99864.25
2023-01-08T03:33:06.160Z,99856.84
2023-01-08T03:38:32.511Z,99846.34
2023-01-08T03:43:34.005Z,99845.72
2023-01-08T03:48:36.839Z,99833.75
2023-01-08T03:53:38.482Z,99812.00
2023-01-08T03:58:39.907Z,99790.19
2023-01-08T04:03:41.336Z,99791.91
2023-01-08T04:08:42.750Z,99795.16
2023-01-08T04:13:44.247Z,99787.66
2023-01-08T04:18:45.701Z,99781.50
2023-01-08T04:23:47.582Z,99800.31
2023-01-08T04:28:49.032Z,99807.38
2023-01-08T04:33:50.487Z,99808.91
2023-01-08T04:38:51.959Z,99815.03
2023-01-08T04:43:53.379Z,99789.88
2023-01-08T04:48:55.071Z,99779.00
2023-01-08T04:53:57.679Z,99782.19
2023-01-08T04:58:59.540Z,99771.69
2023-01-08T05:04:02.810Z,99776.84
2023-01-08T05:09:04.273Z,99749.06
2023-01-08T05:14:05.712Z,99747.50
2023-01-08T05:19:07.190Z,99753.19
2023-01-08T05:24:09.459Z,99745.97
2023-01-08T05:29:11.004Z,99738.75
2023-01-08T05:34:12.483Z,99741.66
2023-01-08T05:39:13.934Z,99735.91
2023-01-08T05:44:15.358Z,99731.66
2023-01-08T05:49:17.026Z,99733.06
2023-01-08T05:54:18.600Z,99723.75
2023-01-08T05:59:20.015Z,99724.88
2023-01-08T06:04:21.545Z,99718.16
2023-01-08T06:09:22.994Z,99724.28
2023-01-08T06:14:24.751Z,99716.78
2023-01-08T06:19:26.187Z,99718.19
2023-01-08T06:24:27.592Z,99709.94
2023-01-08T06:29:28.990Z,99696.44
2023-01-08T06:34:30.448Z,99698.00
2023-01-08T06:39:31.908Z,99694.97
2023-01-08T06:44:33.325Z,99682.72
2023-01-08T06:49:34.729Z,99678.75
2023-01-08T06:54:36.245Z,99680.72
2023-01-08T06:59:37.644Z,99684.31
2023-01-08T07:04:39.105Z,99700.13
2023-01-08T07:09:41.792Z,99698.22
2023-01-08T07:14:43.229Z,99695.50
2023-01-08T07:19:44.628Z,99700.69
2023-01-08T07:24:46.031Z,99704.91
2023-01-08T07:29:47.983Z,99691.75
2023-01-08T07:34:49.405Z,99690.25
2023-01-08T07:39:53.007Z,99675.56
2023-01-08T07:44:54.416Z,99673.78
2023-01-08T07:49:55.821Z,99680.16
2023-01-08T07:54:57.317Z,99666.78
2023-01-08T07:59:58.723Z,99650.84
2023-01-08T08:05:00.188Z,99639.09
2023-01-08T08:10:02.273Z,99652.34
2023-01-08T08:15:04.078Z,99653.16
2023-01-08T08:20:06.054Z,99639.22
2023-01-08T08:25:07.930Z,99626.63
2023-01-08T08:30:11.200Z,99627.91
2023-01-08T08:35:12.643Z,99617.00
2023-01-08T08:40:14.138Z,99607.25
2023-01-08T08:45:15.571Z,99598.59
2023-01-08T08:50:17.630Z,99624.91
2023-01-08T08:55:19.228Z,99613.16
2023-01-08T09:00:21.049Z,99610.06
2023-01-08T09:05:22.474Z,99620.78
2023-01-08T09:10:24.032Z,99623.94
2023-01-08T09:15:25.499Z,99606.19
2023-01-08T09:20:27.307Z,99616.47
2023-01-08T09:25:29.259Z,99626.94
2023-01-08T09:30:30.936Z,99629.22
2023-01-08T09:35:33.260Z,99612.03
2023-01-08T09:40:58.180Z,99611.34
2023-01-08T09:46:03.923Z,99613.91
2023-01-08T09:51:15.502Z,99593.19
2023-01-08T09:56:18.943Z,99584.88
2023-01-08T10:01:27.377Z,99576.00
2023-01-08T10:06:28.956Z,99582.38
2023-01-08T10:11:43.105Z,99551.75
2023-01-08T10:16:48.075Z,99551.50
2023-01-08T10:21:50.414Z,99562.53
2023-01-08T10:26:53.744Z,99556.63
2023-01-08T10:31:58.582Z,99543.06
2023-01-08T10:37:00.548Z,99540.06
2023-01-08T10:42:06.856Z,99536.28
2023-01-08T10:47:18.290Z,99536.13
2023-01-08T10:52:24.564Z,99528.22
2023-01-08T10:57:30.907Z,99526.06
2023-01-08T11:02:40.237Z,99504.91
2023-01-08T11:07:42.443Z,99506.97
2023-01-08T11:12:44.734Z,99517.75
2023-01-08T11:17:46.615Z,99498.88
2023-01-08T11:22:48.042Z,99489.53
2023-01-08T11:27:51.445Z,99498.69
2023-01-08T11:33:01.839Z,99518.66
2023-01-08T11:38:06.152Z,99512.63
2023-01-08T11:43:17.994Z,99501.84
2023-01-08T11:48:29.785Z,99488.41
2023-01-08T11:53:46.571Z,99485.50
2023-01-08T11:59:13.125Z,99486.09
2023-01-08T12:04:27.977Z,99487.84
2023-01-08T12:09:35.544Z,99490.97
2023-01-08T12:14:44.739Z,99493.63
2023-01-08T12:20:11.453Z,99489.84
2023-01-08T12:25:43.480Z,99487.31
2023-01-08T12:31:09.546Z,99453.13
2023-01-08T12:36:17.601Z,99474.41
2023-01-08T12:41:19.617Z,99455.22
2023-01-08T12:46:24.866Z,99447.91
2023-01-08T12:51:37.159Z,99466.88
2023-01-08T12:56:50.499Z,99462.97
2023-01-08T13:02:04.999Z,99465.19
2023-01-08T13:07:06.694Z,99444.16
2023-01-08T13:12:09.080Z,99447.69
2023-01-08T13:17:22.218Z,99438.88
2023-01-08T13:22:25.240Z,99440.78
2023-01-08T13:27:29.406Z,99418.06
2023-01-08T13:32:47.868Z,99393.22
2023-01-08T13:37:52.091Z,99391.03
2023-01-08T13:42:53.603Z,99392.25
2023-01-08T13:47:56.274Z,99400.84
2023-01-08T13:53:00.131Z,99386.41
2023-01-08T13:58:05.044Z,99387.84
2023-01-08T14:03:30.951Z,99384.31
2023-01-08T14:08:32.956Z,99392.25
2023-01-08T14:13:35.635Z,99388.09
2023-01-08T14:18:40.961Z,99394.34
2023-01-08T14:23:46.534Z,99391.19
2023-01-08T14:28:55.026Z,99405.69
2023-01-08T14:33:59.114Z,99403.75
2023-01-08T14:39:00.547Z,99400.56
2023-01-08T14:44:02.556Z,99403.72
2023-01-08T14:49:03.996Z,99404.22
2023-01-08T14:54:08.528Z,99391.50
2023-01-08T14:59:11.867Z,99382.91
2023-01-08T15:04:18.908Z,99368.13
2023-01-08T15:09:27.681Z,99374.69
2023-01-08T15:14:39.054Z,99369.47
2023-01-08T15:19:50.096Z,99360.91
2023-01-08T15:25:17.057Z,99357.97
2023-01-08T15:30:28.958Z,99346.47
2023-01-08T15:35:30.366Z,99333.53
2023-01-08T15:40:31.802Z,99327.41
2023-01-08T15:45:33.456Z,99328.47
2023-01-08T15:50:40.101Z,99345.03
2023-01-08T15:55:43.707Z,99351.97
2023-01-08T16:00:46.357Z,99350.22
2023-01-08T16:05:47.833Z,99357.69
2023-01-08T16:10:53.061Z,99372.28
2023-01-08T16:15:55.824Z,99379.13
2023-01-08T16:21:01.442Z,99373.09
2023-01-08T16:26:10.256Z,99377.94
2023-01-08T16:31:11.701Z,99370.59
2023-01-08T16:36:13.156Z,99375.94
2023-01-08T16:41:14.599Z,99373.38
2023-01-08T16:46:18.025Z,99378.53
2023-01-08T16:51:21.244Z,99364.66
2023-01-08T16:56:22.796Z,99354.28
2023-01-08T17:01:24.303Z,99344.00
2023-01-08T17:06:25.769Z,99342.94
2023-01-08T17:11:27.216Z,99341.38
2023-01-08T17:16:29.475Z,99344.25
2023-01-08T17:21:31.084Z,99336.91
2023-01-08T17:26:32.723Z,99342.22
2023-01-08T17:31:39.825Z,99345.25
2023-01-08T17:36:41.821Z,99342.00
2023-01-08T17:42:01.685Z,99340.06
2023-01-08T17:47:03.107Z,99337.97
2023-01-08T17:52:04.610Z,99323.00
2023-01-08T17:57:06.041Z,99328.03
2023-01-08T18:02:11.175Z,99313.69
2023-01-08T18:07:12.748Z,99317.84
2023-01-08T18:12:14.249Z,99314.22
2023-01-08T18:17:15.763Z,99329.09
2023-01-08T18:22:17.187Z,99352.00
2023-01-08T18:27:18.656Z,99354.16
2023-01-08T18:32:25.843Z,99354.00
2023-01-08T18:37:27.402Z,99334.47
2023-01-08T18:42:30.275Z,99327.81
2023-01-08T18:47:31.774Z,99312.72
2023-01-08T18:52:33.212Z,99321.13
2023-01-08T18:57:34.707Z,99317.84
2023-01-08T19:02:36.426Z,99314.84
2023-01-08T19:07:38.013Z,99310.78
2023-01-08T19:12:39.497Z,99304.25
2023-01-08T19:17:40.925Z,99299.28
2023-01-08T19:22:42.334Z,99287.06
2023-01-08T19:27:43.828Z,99276.25
2023-01-08T19:32:47.470Z,99269.66
2023-01-08T19:37:48.965Z,99262.09
2023-01-08T19:43:09.067Z,99257.81
2023-01-08T19:48:10.485Z,99244.53
2023-01-08T19:53:13.964Z,99246.84
2023-01-08T19:58:18.547Z,99226.50
2023-01-08T20:03:28.931Z,99219.78
2023-01-08T20:08:30.337Z,99217.56
2023-01-08T20:13:33.946Z,99209.38
2023-01-08T20:18:35.970Z,99197.94
2023-01-08T20:23:38.190Z,99177.44
2023-01-08T20:28:40.002Z,99164.03
2023-01-08T20:33:42.555Z,99151.94
2023-01-08T20:38:45.016Z,99150.00
2023-01-08T20:43:46.531Z,99151.59
2023-01-08T20:48:48.440Z,99150.34
2023-01-08T20:53:50.085Z,99128.44
2023-01-08T20:58:51.614Z,99121.56
2023-01-08T21:03:55.333Z,99113.53
2023-01-08T21:08:59.572Z,99118.63
2023-01-08T21:14:01.931Z,99114.25
2023-01-08T21:19:03.958Z,99123.25
2023-01-08T21:24:07.182Z,99128.22
2023-01-08T21:29:09.059Z,99116.66
2023-01-08T21:34:11.583Z,99114.22
2023-01-08T21:39:13.269Z,99126.56
2023-01-08T21:44:41.284Z,99111.94
2023-01-08T21:49:43.515Z,99112.16
2023-01-08T21:54:44.990Z,99114.72
2023-01-08T21:59:49.287Z,99104.50
2023-01-08T22:04:53.950Z,99088.84
2023-01-08T22:09:55.617Z,99079.34
2023-01-08T22:14:57.530Z,99071.31
2023-01-08T22:20:00.296Z,99053.66
2023-01-08T22:25:01.780Z,99047.28
2023-01-08T22:30:04.227Z,99053.72
2023-01-08T22:35:06.022Z,99064.34
2023-01-08T22:40:07.980Z,99061.63
2023-01-08T22:45:10.254Z,99063.84
2023-01-08T22:50:12.281Z,99064.94
2023-01-08T22:55:13.822Z,99056.22
2023-01-08T23:00:15.655Z,99036.19
2023-01-08T23:05:17.159Z,99028.19
2023-01-08T23:10:18.758Z,99023.38
2023-01-08T23:15:21.348Z,99011.91
2023-01-08T23:20:24.848Z,98997.84
2023-01-08T23:25:27.947Z,98996.47
2023-01-08T23:30:31.460Z,98987.72
2023-01-08T23:35:32.878Z,98984.53
2023-01-08T23:40:34.316Z,98973.53
2023-01-08T23:45:37.477Z,98982.63
2023-01-08T23:50:38.947Z,98970.31
2023-01-08T23:55:41.323Z,98969.22
